Time;durP1;ratioP1;P1;durP2;ratioP2;P2;SDS_P1;SDS_P2;PMS_P1;PMS_P2;Temp;Humidity;BMP_temperature;BMP_pressure;BME280_temperature;BME280_humidity;BME280_pressure;Samples;Min_cycle;Max_cycle;Signal;HPM_P1;HPM_P2
2022/08/25 00:00:03;;;;;;;;;16.00;13.67;;;;;25.84;52.55;100687.03;5067395;28;45439;-83
2022/08/25 00:02:28;;;;;;;;;20.00;16.33;;;;;25.81;52.75;100692.63;5067893;28;45413;-83
2022/08/25 00:04:54;;;;;;;;;15.67;15.67;;;;;25.80;52.89;100690.88;5049050;28;45529;-84
2022/08/25 00:07:19;;;;;;;;;17.00;16.67;;;;;25.76;53.48;100692.88;5066802;28;45370;-84
2022/08/25 00:09:45;;;;;;;;;15.00;15.00;;;;;25.75;53.43;100693.81;5066005;28;45531;-84
2022/08/25 00:12:11;;;;;;;;;19.00;17.67;;;;;25.72;53.52;100685.81;5048866;28;44887;-83
2022/08/25 00:14:37;;;;;;;;;16.00;16.00;;;;;25.68;53.73;100692.38;5029039;28;46803;-83
2022/08/25 00:17:04;;;;;;;;;16.00;15.33;;;;;25.64;53.64;100686.19;5046675;28;44757;-83
2022/08/25 00:19:33;;;;;;;;;15.00;15.00;;;;;25.67;53.84;100686.06;5046801;28;45419;-84
2022/08/25 00:21:59;;;;;;;;;15.00;15.00;;;;;25.60;53.94;100673.69;5045795;28;44869;-84
2022/08/25 00:24:25;;;;;;;;;16.00;16.00;;;;;25.60;53.51;100673.69;5046484;28;45422;-84
2022/08/25 00:26:53;;;;;;;;;17.00;15.00;;;;;25.60;53.72;100670.97;5048283;28;45343;-84
2022/08/25 00:29:20;;;;;;;;;17.00;17.00;;;;;25.58;53.76;100675.59;5030833;28;45206;-84
2022/08/25 00:31:46;;;;;;;;;15.67;15.33;;;;;25.56;53.46;100674.78;5029523;28;45606;-84
2022/08/25 00:34:19;;;;;;;;;16.67;16.67;;;;;25.54;53.56;100674.00;5011526;28;47969;-83
2022/08/25 00:40:07;;;;;;;;;17.00;15.33;;;;;25.45;53.55;100649.91;5047688;28;45367;-83
2022/08/25 00:42:32;;;;;;;;;17.00;15.67;;;;;25.42;53.60;100650.09;5045575;28;45390;-84
2022/08/25 00:44:58;;;;;;;;;16.33;16.33;;;;;25.40;54.09;100646.56;5049173;28;47915;-83
2022/08/25 00:47:24;;;;;;;;;15.67;14.33;;;;;25.37;53.35;100654.88;5049146;28;45470;-83
2022/08/25 00:49:58;;;;;;;;;16.67;15.33;;;;;25.38;54.03;100651.19;5051967;28;45500;-84
2022/08/25 00:52:32;;;;;;;;;17.33;16.33;;;;;25.36;53.78;100643.09;5052018;28;45328;-84
2022/08/25 00:55:05;;;;;;;;;19.33;18.33;;;;;25.39;54.21;100647.50;5050879;28;45086;-84
2022/08/25 00:57:39;;;;;;;;;16.33;15.33;;;;;25.35;54.11;100647.66;5048261;28;45722;-84
2022/08/25 01:03:32;;;;;;;;;17.67;16.00;;;;;25.23;54.29;100631.94;5049749;28;44849;-83
2022/08/25 01:06:00;;;;;;;;;16.67;16.67;;;;;25.26;54.61;100644.50;5048601;28;47445;-83
2022/08/25 01:08:28;;;;;;;;;16.67;15.00;;;;;25.19;54.71;100646.63;5049733;28;45407;-83
2022/08/25 01:10:56;;;;;;;;;18.67;18.00;;;;;25.16;55.04;100641.31;5049685;28;45457;-83
2022/08/25 01:13:44;;;;;;;;;14.67;14.67;;;;;25.12;55.32;100636.97;5050964;28;45339;-83
2022/08/25 01:16:09;;;;;;;;;16.67;15.33;;;;;25.08;55.42;100629.91;5048892;28;45422;-83
2022/08/25 01:19:02;;;;;;;;;13.67;13.00;;;;;25.10;54.99;100647.06;5050577;28;46208;-83
2022/08/25 01:21:36;;;;;;;;;13.67;13.67;;;;;25.09;55.60;100656.19;5045878;28;44974;-81
2022/08/25 01:24:03;;;;;;;;;15.67;15.67;;;;;25.09;55.74;100653.47;5050471;28;45384;-82
2022/08/25 01:26:31;;;;;;;;;15.00;13.33;;;;;25.08;55.14;100654.41;5031850;28;47314;-83
2022/08/25 01:29:41;;;;;;;;;17.67;16.00;;;;;25.08;55.69;100648.97;5048536;28;45453;-82
2022/08/25 01:31:49;;;;;;;;;16.67;15.67;;;;;25.01;56.02;100645.66;5056714;28;44792;-83
2022/08/25 01:34:46;;;;;;;;;15.00;15.00;;;;;25.03;55.33;100646.47;5050403;28;45406;-83
2022/08/25 01:37:13;;;;;;;;;14.00;13.67;;;;;25.02;56.01;100649.25;5069392;27;46500;-83
2022/08/25 01:39:39;;;;;;;;;16.33;16.33;;;;;24.96;56.05;100639.53;5069130;28;45556;-82
2022/08/25 01:42:16;;;;;;;;;16.00;16.00;;;;;24.97;56.64;100643.16;5049762;28;45439;-83
2022/08/25 01:44:45;;;;;;;;;14.00;14.00;;;;;24.90;56.76;100637.13;5068413;28;45288;-83
2022/08/25 01:47:12;;;;;;;;;17.67;15.33;;;;;24.86;56.79;100643.66;5068159;28;45654;-83
2022/08/25 01:49:38;;;;;;;;;16.67;15.67;;;;;24.85;56.95;100637.34;5068293;28;45399;-84
2022/08/25 01:52:31;;;;;;;;;15.33;15.33;;;;;24.83;57.02;100633.81;5048668;28;45298;-84
2022/08/25 01:54:57;;;;;;;;;16.00;16.00;;;;;24.80;57.61;100627.63;5068457;28;45429;-81
2022/08/25 01:57:22;;;;;;;;;19.67;16.67;;;;;24.72;57.61;100626.16;5050147;28;45256;-83
2022/08/25 01:59:48;;;;;;;;;16.67;16.67;;;;;24.68;57.22;100624.53;5050524;28;45358;-84
2022/08/25 02:02:14;;;;;;;;;14.00;14.00;;;;;24.67;57.39;100628.19;5051030;28;45437;-83
2022/08/25 02:04:39;;;;;;;;;19.00;17.00;;;;;24.64;58.02;100624.72;5069923;28;45425;-82
2022/08/25 02:07:07;;;;;;;;;17.33;15.33;;;;;24.63;57.87;100622.97;5068840;28;45468;-83
2022/08/25 02:09:34;;;;;;;;;15.00;13.00;;;;;24.64;58.16;100628.34;5067216;28;45536;-83
2022/08/25 02:12:00;;;;;;;;;17.00;17.00;;;;;24.58;57.86;100605.97;5069322;28;44761;-83
2022/08/25 02:14:27;;;;;;;;;16.67;16.67;;;;;24.62;58.05;100602.16;5051693;28;45520;-84
2022/08/25 02:16:53;;;;;;;;;22.33;19.33;;;;;24.59;58.25;100607.75;5062263;28;46421;-84
2022/08/25 02:19:21;;;;;;;;;17.33;16.33;;;;;24.60;58.71;100604.06;5050647;28;44841;-84
2022/08/25 02:21:46;;;;;;;;;19.33;18.00;;;;;24.60;58.93;100620.38;5068957;28;45377;-84
2022/08/25 02:24:12;;;;;;;;;17.33;17.33;;;;;24.60;58.96;100614.94;5068490;28;44815;-84
2022/08/25 02:26:39;;;;;;;;;17.33;15.67;;;;;24.58;59.24;100616.84;5051258;28;45303;-84
2022/08/25 02:29:06;;;;;;;;;19.33;18.33;;;;;24.53;59.23;100601.66;5050975;28;44781;-83
2022/08/25 02:31:33;;;;;;;;;20.00;18.33;;;;;24.46;59.51;100594.72;5069672;28;45433;-83
2022/08/25 02:33:58;;;;;;;;;16.67;16.67;;;;;24.41;59.24;100579.56;5069476;28;45468;-83
2022/08/25 02:36:24;;;;;;;;;17.67;16.67;;;;;24.42;59.67;100579.50;5069235;28;45120;-83
2022/08/25 02:38:49;;;;;;;;;18.67;18.67;;;;;24.42;59.52;100582.22;5051891;27;45707;-83
2022/08/25 02:41:19;;;;;;;;;17.33;17.33;;;;;24.37;59.74;100576.09;5050711;28;45376;-83
2022/08/25 02:43:47;;;;;;;;;14.33;14.33;;;;;24.40;59.56;100584.13;5068851;28;45439;-81
2022/08/25 02:46:14;;;;;;;;;19.33;18.67;;;;;24.35;60.11;100578.00;5049662;28;46943;-83
2022/08/25 02:48:39;;;;;;;;;16.33;16.00;;;;;24.34;59.54;100576.25;5068197;28;45450;-83
2022/08/25 02:51:06;;;;;;;;;17.33;16.67;;;;;24.34;59.84;100578.97;5069122;28;44772;-83
2022/08/25 02:53:32;;;;;;;;;17.33;16.00;;;;;24.33;60.03;100579.91;5069276;28;45455;-83
2022/08/25 02:55:58;;;;;;;;;15.33;15.33;;;;;24.31;59.63;100573.66;5050672;28;46806;-83
2022/08/25 02:58:24;;;;;;;;;18.00;17.00;;;;;24.29;59.73;100568.28;5070108;28;44880;-84
2022/08/25 03:00:51;;;;;;;;;12.67;12.67;;;;;24.29;59.64;100573.72;5069185;28;45358;-82
2022/08/25 03:03:16;;;;;;;;;20.33;19.67;;;;;24.30;59.58;100567.34;5068172;28;45355;-83
2022/08/25 03:05:42;;;;;;;;;20.00;18.00;;;;;24.27;60.01;100574.75;5050862;28;47689;-84
2022/08/25 03:08:08;;;;;;;;;17.00;17.00;;;;;24.23;59.93;100574.00;5069237;28;45481;-84
2022/08/25 03:10:34;;;;;;;;;18.00;18.00;;;;;24.19;60.22;100569.66;5049779;28;45475;-83
2022/08/25 03:12:59;;;;;;;;;17.33;17.33;;;;;24.16;60.79;100577.97;5050996;28;45607;-83
2022/08/25 03:15:26;;;;;;;;;17.67;16.67;;;;;24.09;60.62;100571.91;5068106;28;46904;-84
2022/08/25 03:17:53;;;;;;;;;16.33;16.33;;;;;24.05;60.91;100575.69;5047609;28;44801;-83
2022/08/25 03:20:20;;;;;;;;;19.00;18.00;;;;;24.03;61.28;100571.28;5047119;28;45346;-83
2022/08/25 03:22:45;;;;;;;;;21.33;20.67;;;;;24.04;60.92;100573.94;5049465;28;45533;-82
2022/08/25 03:27:57;;;;;;;;;19.00;17.67;;;;;23.98;62.06;100557.94;5049189;28;44835;-82
2022/08/25 03:30:25;;;;;;;;;18.33;18.00;;;;;23.93;62.23;100551.81;5048556;28;45403;-82
2022/08/25 03:32:50;;;;;;;;;19.67;18.67;;;;;23.95;62.63;100558.06;5048904;28;45491;-83
2022/08/25 03:35:16;;;;;;;;;19.67;18.00;;;;;23.90;62.23;100541.97;5049513;28;45680;-83
2022/08/25 03:37:42;;;;;;;;;19.33;17.67;;;;;23.91;62.36;100538.28;5051865;28;46038;-83
2022/08/25 03:40:10;;;;;;;;;20.00;17.67;;;;;23.87;62.27;100522.19;5030479;28;45522;-83
2022/08/25 03:42:39;;;;;;;;;17.33;15.67;;;;;23.89;62.41;100520.28;5031773;28;45832;-83
2022/08/25 03:45:06;;;;;;;;;17.33;17.00;;;;;23.82;62.76;100524.25;5030116;28;46803;-83
2022/08/25 03:47:33;;;;;;;;;20.33;18.33;;;;;23.81;63.46;100523.34;5049116;28;44812;-84
2022/08/25 03:49:58;;;;;;;;;19.00;19.00;;;;;23.79;63.69;100524.38;5030170;28;45508;-84
2022/08/25 03:52:24;;;;;;;;;18.33;17.67;;;;;23.76;63.67;100517.22;5048023;28;45651;-84
2022/08/25 03:54:49;;;;;;;;;16.67;16.67;;;;;23.76;63.21;100537.09;5029738;28;46795;-83
2022/08/25 03:57:15;;;;;;;;;17.00;17.00;;;;;23.77;63.33;100527.16;5047123;28;45359;-83
2022/08/25 03:59:40;;;;;;;;;19.67;18.33;;;;;23.76;63.43;100528.97;5048554;28;45437;-82
2022/08/25 04:02:07;;;;;;;;;18.67;17.00;;;;;23.76;63.51;100536.22;5030091;28;45455;-83
2022/08/25 04:04:34;;;;;;;;;23.67;22.33;;;;;23.69;63.36;100541.06;5029788;28;47201;-83
2022/08/25 04:07:00;;;;;;;;;20.33;19.00;;;;;23.71;63.60;100563.59;5030482;28;45415;-84
2022/08/25 04:09:26;;;;;;;;;18.33;18.33;;;;;23.65;63.55;100550.28;5047469;28;45469;-83
2022/08/25 04:11:51;;;;;;;;;20.67;20.00;;;;;23.62;63.67;100547.69;5030982;28;44824;-82
2022/08/25 04:14:17;;;;;;;;;18.00;17.67;;;;;23.65;64.08;100550.28;5030076;28;47041;-84
2022/08/25 04:16:44;;;;;;;;;20.00;18.00;;;;;23.59;64.16;100542.38;5031239;28;45419;-83
2022/08/25 04:19:09;;;;;;;;;17.00;17.00;;;;;23.59;63.96;100544.22;5050597;28;45382;-83
2022/08/25 04:21:37;;;;;;;;;21.33;19.00;;;;;23.56;64.38;100543.41;5031182;28;45490;-81
2022/08/25 04:24:04;;;;;;;;;19.00;19.00;;;;;23.48;64.87;100547.41;5049266;28;45414;-82
2022/08/25 04:26:42;;;;;;;;;20.67;19.33;;;;;23.49;64.51;100557.28;5030100;28;44827;-83
2022/08/25 04:29:10;;;;;;;;;17.33;17.33;;;;;23.45;64.69;100555.66;5049897;28;45402;-83
2022/08/25 04:31:38;;;;;;;;;19.67;19.33;;;;;23.42;64.97;100553.09;5014750;28;45382;-83
2022/08/25 04:34:04;;;;;;;;;20.67;18.00;;;;;23.39;64.88;100554.13;5049663;28;45493;-83
2022/08/25 04:36:30;;;;;;;;;18.67;18.67;;;;;23.36;65.10;100560.53;5050379;28;45514;-84
2022/08/25 04:38:55;;;;;;;;;18.67;18.67;;;;;23.36;64.41;100559.66;5051881;28;45432;-83
2022/08/25 04:41:23;;;;;;;;;18.67;18.67;;;;;23.35;64.59;100569.63;5032973;28;45408;-83
2022/08/25 04:43:50;;;;;;;;;21.33;21.33;;;;;23.34;64.47;100576.00;5049290;28;46789;-84
2022/08/25 04:46:27;;;;;;;;;18.33;18.33;;;;;23.31;64.62;100577.97;5032431;28;45526;-83
2022/08/25 04:48:54;;;;;;;;;16.67;16.67;;;;;23.24;65.52;100580.03;5050293;28;44843;-83
2022/08/25 04:51:28;;;;;;;;;21.67;20.00;;;;;23.21;65.65;100577.47;5050168;28;45809;-83
2022/08/25 04:53:54;;;;;;;;;17.67;16.67;;;;;23.25;65.37;100584.53;5033214;28;47178;-84
2022/08/25 04:56:25;;;;;;;;;23.33;22.00;;;;;23.22;65.67;100579.22;5051166;28;45429;-84
2022/08/25 04:58:51;;;;;;;;;19.67;19.67;;;;;23.18;66.16;100588.44;5033163;28;45743;-83
2022/08/25 05:01:20;;;;;;;;;21.00;19.33;;;;;23.15;65.85;100592.16;5016346;28;44866;-84
2022/08/25 05:03:51;;;;;;;;;18.00;18.00;;;;;23.12;66.35;100589.56;5049695;28;45583;-83
2022/08/25 05:06:16;;;;;;;;;18.33;18.33;;;;;23.09;66.45;100599.69;5048757;28;45881;-84
2022/08/25 05:12:04;;;;;;;;;18.00;17.67;;;;;23.04;66.32;100596.25;5051845;28;45387;-83
2022/08/25 05:14:30;;;;;;;;;17.67;17.33;;;;;23.04;66.55;100602.53;5051040;28;45439;-84
2022/08/25 05:16:56;;;;;;;;;18.00;18.00;;;;;22.99;66.45;100599.13;5050335;28;44926;-84
2022/08/25 05:19:29;;;;;;;;;18.00;18.00;;;;;23.00;66.26;100608.13;5032739;28;45474;-84
2022/08/25 05:21:54;;;;;;;;;20.67;19.67;;;;;22.99;66.64;100609.09;5050499;28;44777;-83
2022/08/25 05:24:20;;;;;;;;;17.33;17.33;;;;;22.99;66.98;100620.81;5031634;28;46733;-84
2022/08/25 05:26:46;;;;;;;;;23.00;23.00;;;;;22.99;66.55;100617.22;5049884;28;45502;-84
2022/08/25 05:29:12;;;;;;;;;20.00;20.00;;;;;23.00;66.41;100616.28;5051041;28;45508;-84
2022/08/25 05:31:37;;;;;;;;;21.00;19.67;;;;;23.03;66.57;100627.91;5051373;28;45445;-84
2022/08/25 05:34:07;;;;;;;;;19.33;18.33;;;;;23.07;66.09;100620.56;5032486;28;46924;-83
2022/08/25 05:36:33;;;;;;;;;18.33;17.33;;;;;23.07;66.54;100609.69;5051523;28;45391;-83
2022/08/25 05:38:59;;;;;;;;;17.67;17.67;;;;;23.10;66.28;100612.28;5034090;28;45391;-82
2022/08/25 05:41:27;;;;;;;;;22.67;18.67;;;;;23.09;66.43;100611.41;5051065;28;45414;-83
2022/08/25 05:43:53;;;;;;;;;20.00;19.33;;;;;23.11;66.39;100616.78;5069033;28;45537;-82
2022/08/25 05:46:20;;;;;;;;;22.00;21.00;;;;;23.18;66.20;100621.00;5050229;28;45411;-83
2022/08/25 05:48:46;;;;;;;;;21.00;21.00;;;;;23.20;66.00;100610.97;5068250;28;45446;-84
2022/08/25 05:51:13;;;;;;;;;22.33;20.00;;;;;23.30;65.85;100623.19;5050622;28;45310;-84
2022/08/25 05:53:44;;;;;;;;;21.00;20.67;;;;;23.35;65.37;100613.06;5068620;28;47353;-84
2022/08/25 05:56:12;;;;;;;;;19.67;18.67;;;;;23.48;65.27;100620.69;5051181;28;45713;-84
2022/08/25 05:58:39;;;;;;;;;22.33;22.33;;;;;23.58;65.04;100613.94;5070030;28;45343;-84
2022/08/25 06:03:52;;;;;;;;;23.00;20.33;;;;;23.84;63.96;100609.25;5070540;28;45441;-85
2022/08/25 06:06:18;;;;;;;;;24.00;22.00;;;;;23.92;63.95;100618.84;5052070;28;44883;-83
2022/08/25 06:08:45;;;;;;;;;19.33;19.33;;;;;24.03;63.61;100606.63;5070788;28;45445;-82
2022/08/25 06:11:12;;;;;;;;;18.67;17.33;;;;;24.15;63.45;100608.78;5070902;28;45410;-83
2022/08/25 06:13:38;;;;;;;;;19.00;17.67;;;;;24.28;63.15;100595.53;5053119;28;46975;-83
2022/08/25 06:16:05;;;;;;;;;22.00;20.00;;;;;24.37;62.90;100595.13;5053295;28;45423;-83
2022/08/25 06:18:33;;;;;;;;;21.67;19.00;;;;;24.47;62.44;100592.88;5053262;28;44849;-85
2022/08/25 06:21:07;;;;;;;;;18.67;18.33;;;;;24.56;62.14;100581.56;5072748;28;45661;-85
2022/08/25 06:23:32;;;;;;;;;21.33;21.33;;;;;24.73;61.50;100591.69;5071225;28;47142;-85
2022/08/25 06:25:58;;;;;;;;;19.67;19.00;;;;;24.77;61.17;100595.16;5072344;28;45401;-86
2022/08/25 06:28:23;;;;;;;;;20.33;20.00;;;;;24.73;61.22;100583.53;5045786;28;45284;-86
2022/08/25 06:30:56;;;;;;;;;20.33;20.33;;;;;24.82;60.97;100596.66;5053069;28;44894;-83
2022/08/25 06:33:24;;;;;;;;;22.00;20.00;;;;;24.95;61.43;100603.31;5052022;28;45379;-85
2022/08/25 06:35:54;;;;;;;;;19.00;18.00;;;;;25.06;60.91;100601.91;5053563;28;44819;-85
2022/08/25 06:38:21;;;;;;;;;21.33;20.00;;;;;25.22;60.67;100604.78;5037413;28;44750;-85
2022/08/25 06:40:47;;;;;;;;;23.00;21.00;;;;;25.30;60.09;100598.00;5054527;28;45485;-85
2022/08/25 06:43:16;;;;;;;;;23.00;21.67;;;;;25.42;60.26;100604.69;5054049;28;45421;-85
2022/08/25 06:45:43;;;;;;;;;26.00;25.00;;;;;25.43;58.92;100589.22;5050499;28;45394;-86
2022/08/25 06:48:12;;;;;;;;;22.67;22.00;;;;;25.44;59.18;100588.28;5048051;28;44844;-84
2022/08/25 06:50:38;;;;;;;;;19.67;19.67;;;;;25.43;59.15;100559.25;5049397;28;44854;-86
2022/08/25 06:56:26;;;;;;;;;23.00;22.00;;;;;25.94;58.54;100606.63;5052818;28;44868;-86
2022/08/25 06:58:52;;;;;;;;;24.33;21.00;;;;;26.09;58.15;100604.94;5052013;28;45484;-86
2022/08/25 07:01:22;;;;;;;;;20.00;20.00;;;;;26.07;57.57;100588.66;5068714;28;44830;-88
2022/08/25 07:04:32;;;;;;;;;23.33;20.33;;;;;26.35;55.48;100611.72;5049827;28;45416;-86
2022/08/25 07:10:22;;;;;;;;;18.00;18.00;;;;;26.39;53.25;100607.00;5055060;28;45369;-86
2022/08/25 07:12:57;;;;;;;;;17.00;16.00;;;;;26.31;52.87;100583.72;5068617;28;45527;-87
2022/08/25 07:15:25;;;;;;;;;21.33;20.33;;;;;26.60;51.67;100607.69;5051257;28;45563;-86
2022/08/25 07:18:10;;;;;;;;;19.33;19.33;;;;;26.58;51.54;100595.97;5060175;28;45441;-86
2022/08/25 07:20:42;;;;;;;;;21.00;19.67;;;;;26.66;51.19;100599.16;5043137;28;44826;-87
2022/08/25 07:23:10;;;;;;;;;16.67;16.67;;;;;26.48;48.09;100568.28;5020044;28;44957;-87
2022/08/25 07:25:36;;;;;;;;;20.00;18.00;;;;;26.56;49.42;100598.75;5041958;28;45540;-85
2022/08/25 07:28:05;;;;;;;;;19.33;17.33;;;;;26.43;48.58;100581.31;5035998;28;45378;-84
2022/08/25 07:30:31;;;;;;;;;18.00;17.00;;;;;26.54;49.27;100612.50;5040104;28;45516;-84
2022/08/25 07:32:57;;;;;;;;;16.00;16.00;;;;;26.44;48.18;100583.97;5041486;28;44827;-86
2022/08/25 07:35:31;;;;;;;;;15.33;15.33;;;;;26.49;48.30;100587.31;5030687;28;46631;-86
2022/08/25 07:38:29;;;;;;;;;19.00;17.33;;;;;26.70;48.21;100612.56;5036047;28;45501;-86
2022/08/25 07:51:29;;;;;;;;;14.00;14.00;;;;;27.05;45.88;100576.94;5052351;28;45391;-87
2022/08/25 07:54:21;;;;;;;;;15.33;14.00;;;;;27.12;45.06;100569.28;5021552;28;45459;-88
2022/08/25 07:56:47;;;;;;;;;13.33;13.33;;;;;27.46;44.71;100589.19;5055241;28;45706;-86
2022/08/25 07:59:13;;;;;;;;;16.33;14.67;;;;;27.59;44.45;100583.88;5042303;28;45532;-86
2022/08/25 08:01:41;;;;;;;;;14.67;13.33;;;;;27.68;43.10;100567.81;5062610;28;45770;-87
2022/08/25 08:04:10;;;;;;;;;14.33;14.00;;;;;28.01;42.87;100591.38;5031479;28;45272;-87
2022/08/25 08:06:47;;;;;;;;;19.00;15.67;;;;;28.02;42.88;100582.19;5021012;28;45070;-86
2022/08/25 08:09:21;;;;;;;;;13.00;12.00;;;;;28.24;42.47;100608.22;5034812;28;46232;-88
2022/08/25 08:11:47;;;;;;;;;13.33;13.33;;;;;28.11;42.21;100580.75;5055786;28;45465;-87
2022/08/25 08:14:33;;;;;;;;;13.33;12.33;;;;;28.34;41.64;100644.97;5033466;28;45440;-88
2022/08/25 08:17:38;;;;;;;;;17.00;13.33;;;;;28.37;42.20;100652.09;5050881;28;44722;-88
2022/08/25 08:20:33;;;;;;;;;;;;;;;;;;;;;
2022/08/25 08:23:11;;;;;;;;;17.67;17.00;;;;;28.20;43.51;100590.22;5052398;28;45442;-89
2022/08/25 08:26:05;;;;;;;;;15.00;15.00;;;;;28.41;43.58;100649.06;5046636;28;45391;-88
2022/08/25 08:29:11;;;;;;;;;16.00;14.33;;;;;28.26;44.85;100639.09;5037101;28;44849;-88
2022/08/25 08:32:07;;;;;;;;;16.67;14.67;;;;;28.27;44.81;100630.78;5032267;28;45442;-87
2022/08/25 08:37:40;;;;;;;;;16.33;15.67;;;;;28.40;43.76;100635.47;5033348;28;44755;-88
2022/08/25 08:40:36;;;;;;;;;;;;;;;;;;;;;
2022/08/25 08:43:40;;;;;;;;;18.00;14.67;;;;;28.53;43.86;100610.03;5051856;28;75183;-88
2022/08/25 08:46:26;;;;;;;;;10.67;10.00;;;;;28.57;42.75;100632.63;5053185;28;45663;-89
2022/08/25 08:49:24;;;;;;;;;;;;;;;;;;;;;
2022/08/25 08:52:29;;;;;;;;;17.00;17.00;;;;;28.22;43.97;100643.88;5058584;28;65190;-87
2022/08/25 08:55:06;;;;;;;;;15.00;15.00;;;;;28.08;44.40;100614.63;5052303;28;46794;-87
2022/08/25 08:57:43;;;;;;;;;14.00;14.00;;;;;28.27;44.88;100654.50;5051603;28;45363;-89
2022/08/25 09:00:17;;;;;;;;;13.00;12.33;;;;;28.08;44.08;100661.13;5033473;28;45780;-88
2022/08/25 09:03:17;;;;;;;;;16.00;14.67;;;;;28.18;43.99;100671.47;5038354;28;44977;-88
2022/08/25 09:05:47;;;;;;;;;14.67;14.67;;;;;27.94;42.83;100650.13;5053780;28;45578;-89
2022/08/25 09:08:20;;;;;;;;;15.00;15.00;;;;;27.96;43.18;100674.66;5036636;28;45223;-88
2022/08/25 09:11:28;;;;;;;;;;;;;;;;;;;;;
2022/08/25 09:14:27;;;;;;;;;12.00;12.00;;;;;27.97;43.18;100660.88;4991331;28;64400;-90
2022/08/25 09:17:09;;;;;;;;;13.67;12.67;;;;;27.77;43.68;100620.16;4956560;28;45416;-89
2022/08/25 09:19:53;;;;;;;;;13.67;13.67;;;;;27.89;42.54;100646.78;4976307;28;44856;-89
2022/08/25 09:22:46;;;;;;;;;15.67;15.67;;;;;27.85;42.76;100651.50;4987182;28;45405;-87
2022/08/25 09:25:29;;;;;;;;;16.67;16.67;;;;;28.01;43.68;100659.69;4986381;28;47517;-88
2022/08/25 09:28:09;;;;;;;;;15.33;14.33;;;;;28.00;42.00;100641.56;4967926;28;46573;-85
2022/08/25 09:31:02;;;;;;;;;15.67;15.67;;;;;27.97;42.74;100621.72;4965437;28;44812;-87
2022/08/25 09:33:35;;;;;;;;;16.00;15.33;;;;;28.08;43.24;100644.72;4971971;28;45436;-87
2022/08/25 09:36:04;;;;;;;;;16.00;15.33;;;;;28.07;43.34;100620.19;4974320;28;45421;-88
2022/08/25 09:38:30;;;;;;;;;14.00;14.00;;;;;28.19;42.83;100621.28;4976047;28;45433;-87
2022/08/25 09:40:59;;;;;;;;;14.67;14.67;;;;;28.39;42.67;100651.03;4990408;28;45531;-87
2022/08/25 09:43:28;;;;;;;;;14.33;14.33;;;;;28.43;42.15;100649.84;4956444;28;45239;-88
2022/08/25 09:46:01;;;;;;;;;15.67;15.67;;;;;28.21;42.75;100608.41;4985926;28;44795;-87
2022/08/25 09:48:45;;;;;;;;;17.00;15.00;;;;;28.23;42.73;100612.78;4973666;28;47002;-88
2022/08/25 09:51:16;;;;;;;;;13.67;12.33;;;;;28.45;42.44;100650.63;5036262;28;45644;-87
2022/08/25 09:53:49;;;;;;;;;13.67;12.00;;;;;28.50;40.67;100643.06;5048267;28;45353;-86
2022/08/25 09:56:20;;;;;;;;;12.00;12.00;;;;;28.51;41.10;100625.66;5036506;28;45659;-85
2022/08/25 09:58:48;;;;;;;;;14.67;14.67;;;;;28.65;41.82;100637.59;5045578;28;45294;-85
2022/08/25 10:01:21;;;;;;;;;11.67;11.00;;;;;28.61;41.40;100623.22;5035290;28;44792;-85
2022/08/25 10:04:00;;;;;;;;;12.00;12.00;;;;;28.79;41.64;100640.34;5036372;28;45568;-85
2022/08/25 10:06:36;;;;;;;;;12.00;10.67;;;;;28.67;40.99;100603.69;5028512;28;45684;-86
2022/08/25 10:09:06;;;;;;;;;10.00;9.00;;;;;28.90;40.17;100634.16;5067836;28;45989;-86
2022/08/25 10:14:26;;;;;;;;;11.33;10.33;;;;;29.05;40.36;100627.72;5111250;22;45690;-84
2022/08/25 10:17:30;;;;;;;;;9.00;9.00;;;;;29.05;40.04;100618.63;5066601;28;45362;-85
2022/08/25 10:20:26;;;;;;;;;11.33;11.33;;;;;29.06;40.37;100623.09;4994781;28;48045;-86
2022/08/25 10:23:10;;;;;;;;;12.67;12.00;;;;;29.05;40.06;100613.16;4976832;28;45699;-85
2022/08/25 10:25:44;;;;;;;;;12.00;10.33;;;;;29.14;40.46;100604.34;4993224;28;44817;-84
2022/08/25 10:28:32;;;;;;;;;13.00;12.00;;;;;29.20;40.68;100603.94;5007503;28;45316;-85
2022/08/25 10:31:23;;;;;;;;;10.00;10.00;;;;;29.28;40.49;100601.56;4993633;28;45258;-88
2022/08/25 10:34:45;;;;;;;;;10.67;9.00;;;;;29.37;40.69;100602.84;4993340;28;44711;-85
2022/08/25 10:37:34;;;;;;;;;12.33;11.67;;;;;29.25;39.16;100557.09;4992279;28;45559;-86
2022/08/25 10:40:24;;;;;;;;;11.00;11.00;;;;;29.52;39.67;100598.19;4973784;28;45424;-85
2022/08/25 10:43:27;;;;;;;;;10.67;10.67;;;;;29.46;39.65;100579.41;4974159;28;46612;-87
2022/08/25 10:46:19;;;;;;;;;12.00;12.00;;;;;29.54;37.89;100590.72;4963576;28;45546;-85
2022/08/25 10:48:57;;;;;;;;;11.33;11.33;;;;;29.58;38.26;100583.19;4955963;28;45447;-86
2022/08/25 10:55:28;;;;;;;;;12.33;12.33;;;;;29.69;38.00;100578.72;5002888;28;45477;-85
2022/08/25 10:58:20;;;;;;;;;11.33;10.00;;;;;29.79;37.56;100589.09;4965825;28;45481;-86
2022/08/25 11:00:58;;;;;;;;;10.00;8.00;;;;;29.73;36.28;100578.53;4922399;28;45419;-86
2022/08/25 11:03:43;;;;;;;;;11.67;11.67;;;;;29.87;36.63;100589.44;4923491;28;45670;-85
2022/08/25 11:06:39;;;;;;;;;9.00;9.00;;;;;29.86;37.11;100573.97;4914248;28;47263;-86
2022/08/25 11:09:18;;;;;;;;;10.67;10.67;;;;;29.81;35.41;100570.66;4897055;29;44826;-86
2022/08/25 11:11:56;;;;;;;;;12.00;12.00;;;;;29.98;36.47;100578.59;4896444;29;44849;-87
2022/08/25 11:14:25;;;;;;;;;11.00;10.67;;;;;30.03;35.57;100576.41;4885671;29;45462;-86
2022/08/25 11:16:57;;;;;;;;;12.33;11.00;;;;;29.83;34.87;100541.28;4885651;29;45304;-88
2022/08/25 11:19:51;;;;;;;;;11.00;11.00;;;;;30.09;35.48;100584.19;4932434;28;45625;-87
2022/08/25 11:22:44;;;;;;;;;12.00;12.00;;;;;29.98;35.75;100548.44;4919589;28;45256;-85
2022/08/25 11:25:25;;;;;;;;;11.00;11.00;;;;;30.18;34.65;100566.22;4899539;28;45195;-86
2022/08/25 11:28:18;;;;;;;;;11.67;11.67;;;;;30.34;35.33;100573.38;4918707;28;45549;-85
2022/08/25 11:30:45;;;;;;;;;10.00;10.00;;;;;30.31;35.25;100574.50;4898824;29;45401;-87
2022/08/25 11:33:18;;;;;;;;;9.33;9.33;;;;;30.34;35.57;100582.50;4914445;28;45930;-87
2022/08/25 11:36:04;;;;;;;;;10.00;10.00;;;;;30.17;35.11;100555.34;4945678;28;45460;-87
2022/08/25 11:38:53;;;;;;;;;10.67;10.67;;;;;30.35;35.71;100588.88;4995660;28;45472;-86
2022/08/25 11:41:28;;;;;;;;;8.67;8.67;;;;;30.25;36.39;100572.16;5024261;28;45433;-85
2022/08/25 11:44:07;;;;;;;;;9.33;9.33;;;;;30.33;36.47;100575.25;5033650;28;44756;-87
2022/08/25 11:47:11;;;;;;;;;;;;;;;;;;;;;
2022/08/25 11:50:16;;;;;;;;;10.00;10.00;;;;;30.56;36.40;100589.19;5034235;28;45136;-85
2022/08/25 11:52:50;;;;;;;;;9.33;9.33;;;;;30.61;36.56;100581.50;5035454;28;44806;-87
2022/08/25 11:56:11;;;;;;;;;8.00;8.00;;;;;30.68;37.80;100577.31;5016254;28;44740;-87
2022/08/25 11:58:55;;;;;;;;;12.00;10.67;;;;;30.63;37.55;100560.31;4934010;28;45515;-86
2022/08/25 12:01:38;;;;;;;;;13.00;9.33;;;;;30.77;37.52;100576.66;4931818;28;45223;-86
2022/08/25 12:04:39;;;;;;;;;11.67;11.33;;;;;30.90;37.92;100573.91;4931650;28;45561;-83
2022/08/25 12:07:13;;;;;;;;;13.33;12.00;;;;;30.98;38.32;100568.72;4902060;28;44734;-85
2022/08/25 12:09:54;;;;;;;;;10.67;10.33;;;;;31.08;37.79;100571.66;4933170;28;44845;-85
2022/08/25 12:12:57;;;;;;;;;13.00;12.33;;;;;31.17;38.28;100572.81;4932460;28;46771;-86
2022/08/25 12:15:58;;;;;;;;;9.67;9.67;;;;;31.40;38.51;100568.34;4932403;28;45458;-85
2022/08/25 12:18:29;;;;;;;;;10.67;9.33;;;;;31.58;37.77;100571.59;4906252;28;45471;-86
2022/08/25 12:21:30;;;;;;;;;12.00;10.00;;;;;31.70;37.58;100577.03;4933474;28;44848;-86
2022/08/25 12:24:01;;;;;;;;;10.00;10.00;;;;;31.87;37.66;100578.47;4917147;28;47088;-85
2022/08/25 12:26:53;;;;;;;;;8.00;8.00;;;;;31.85;36.22;100543.81;4927946;28;44857;-86
2022/08/25 12:29:55;;;;;;;;;9.67;9.67;;;;;32.14;36.89;100570.94;5002727;28;45392;-85